Terminal Aerodrome Forecast
Issued by NWS

Home | Current Version | Previous Version | Text Only | Print | Product List | Glossary On
Versions: 1 2 3 4 5 6 7 8 9 10 11 12 13 14 15 16 17 18 19 20 21 22
000
FTUS42 KFFC 271134
TAFRYY
TAF
KRYY 271134Z 2712/2812 VRB03KT 3SM BR OVC004
     FM271500 17008KT P6SM VCSH BKN015
     FM271800 21006KT P6SM VCSH BKN025
     FM272000 22007KT 6SM -SHRA BR BKN035 PROB30 2721/2724 3SM -TSRA
      BKN015CB
     FM280000 20005KT P6SM BKN040
     FM280500 VRB03KT P6SM SCT020 BKN080=

USA.gov is the U.S. government's official web portal to all federal, state and local government web resources and services.